sensor_id;sensor_type;location;lat;lon;timestamp;P1;durP1;ratioP1;P2;durP2;ratioP2
38621;SDS011;24380;51.132;5.360;2023-04-01T00:06:40;2.65;;;1.00;;
38621;SDS011;24380;51.132;5.360;2023-04-01T00:09:08;4.67;;;1.15;;
38621;SDS011;24380;51.132;5.360;2023-04-01T00:11:36;5.33;;;1.70;;
38621;SDS011;24380;51.132;5.360;2023-04-01T00:14:04;6.50;;;1.30;;
38621;SDS011;24380;51.132;5.360;2023-04-01T00:16:33;5.28;;;1.37;;
38621;SDS011;24380;51.132;5.360;2023-04-01T00:19:01;3.35;;;1.50;;
38621;SDS011;24380;51.132;5.360;2023-04-01T00:21:29;5.30;;;1.20;;
38621;SDS011;24380;51.132;5.360;2023-04-01T00:23:56;2.90;;;1.20;;
38621;SDS011;24380;51.132;5.360;2023-04-01T00:26:24;4.40;;;1.30;;
38621;SDS011;24380;51.132;5.360;2023-04-01T00:28:52;4.53;;;1.60;;
38621;SDS011;24380;51.132;5.360;2023-04-01T00:31:20;6.70;;;1.32;;
38621;SDS011;24380;51.132;5.360;2023-04-01T00:33:48;2.98;;;1.00;;
38621;SDS011;24380;51.132;5.360;2023-04-01T00:38:52;3.05;;;1.40;;
38621;SDS011;24380;51.132;5.360;2023-04-01T00:41:19;3.90;;;0.90;;
38621;SDS011;24380;51.132;5.360;2023-04-01T00:43:48;2.58;;;1.02;;
38621;SDS011;24380;51.132;5.360;2023-04-01T00:46:17;5.35;;;1.00;;
38621;SDS011;24380;51.132;5.360;2023-04-01T00:48:47;3.35;;;1.00;;
38621;SDS011;24380;51.132;5.360;2023-04-01T00:51:17;4.62;;;1.50;;
38621;SDS011;24380;51.132;5.360;2023-04-01T00:56:30;4.95;;;1.00;;
38621;SDS011;24380;51.132;5.360;2023-04-01T00:59:00;3.27;;;1.10;;
38621;SDS011;24380;51.132;5.360;2023-04-01T01:01:29;2.98;;;1.00;;
38621;SDS011;24380;51.132;5.360;2023-04-01T01:03:57;4.60;;;1.10;;
38621;SDS011;24380;51.132;5.360;2023-04-01T01:11:42;2.65;;;0.80;;
38621;SDS011;24380;51.132;5.360;2023-04-01T01:14:36;1.65;;;0.75;;
38621;SDS011;24380;51.132;5.360;2023-04-01T01:16:50;2.45;;;0.80;;
38621;SDS011;24380;51.132;5.360;2023-04-01T01:27:34;5.22;;;1.00;;
38621;SDS011;24380;51.132;5.360;2023-04-01T01:33:15;3.55;;;1.10;;
38621;SDS011;24380;51.132;5.360;2023-04-01T01:35:53;4.47;;;1.50;;
38621;SDS011;24380;51.132;5.360;2023-04-01T01:38:24;1.82;;;1.00;;
38621;SDS011;24380;51.132;5.360;2023-04-01T01:40:53;4.35;;;1.30;;
38621;SDS011;24380;51.132;5.360;2023-04-01T01:43:25;4.50;;;1.55;;
38621;SDS011;24380;51.132;5.360;2023-04-01T01:45:55;2.95;;;1.30;;
38621;SDS011;24380;51.132;5.360;2023-04-01T01:48:25;3.65;;;1.20;;
38621;SDS011;24380;51.132;5.360;2023-04-01T01:50:54;4.53;;;1.50;;
38621;SDS011;24380;51.132;5.360;2023-04-01T01:53:22;4.22;;;1.37;;
38621;SDS011;24380;51.132;5.360;2023-04-01T01:55:49;2.70;;;1.40;;
38621;SDS011;24380;51.132;5.360;2023-04-01T01:58:23;2.87;;;1.02;;
38621;SDS011;24380;51.132;5.360;2023-04-01T02:00:55;4.80;;;1.30;;
38621;SDS011;24380;51.132;5.360;2023-04-01T02:03:28;3.27;;;1.57;;
38621;SDS011;24380;51.132;5.360;2023-04-01T02:05:59;2.17;;;1.17;;
38621;SDS011;24380;51.132;5.360;2023-04-01T02:08:30;3.00;;;1.15;;
38621;SDS011;24380;51.132;5.360;2023-04-01T02:11:15;2.27;;;1.27;;
38621;SDS011;24380;51.132;5.360;2023-04-01T02:13:52;2.52;;;1.30;;
38621;SDS011;24380;51.132;5.360;2023-04-01T02:16:32;4.72;;;1.70;;
38621;SDS011;24380;51.132;5.360;2023-04-01T02:19:04;5.83;;;1.65;;
38621;SDS011;24380;51.132;5.360;2023-04-01T02:21:34;3.08;;;1.50;;
38621;SDS011;24380;51.132;5.360;2023-04-01T02:24:04;3.10;;;1.50;;
38621;SDS011;24380;51.132;5.360;2023-04-01T02:29:01;5.10;;;1.52;;
38621;SDS011;24380;51.132;5.360;2023-04-01T02:31:31;4.78;;;1.90;;
38621;SDS011;24380;51.132;5.360;2023-04-01T02:34:00;4.67;;;2.15;;
38621;SDS011;24380;51.132;5.360;2023-04-01T02:36:29;2.27;;;1.77;;
38621;SDS011;24380;51.132;5.360;2023-04-01T02:38:56;4.45;;;2.08;;
38621;SDS011;24380;51.132;5.360;2023-04-01T02:41:27;4.25;;;1.77;;
38621;SDS011;24380;51.132;5.360;2023-04-01T02:43:56;5.40;;;1.92;;
38621;SDS011;24380;51.132;5.360;2023-04-01T02:46:25;4.12;;;2.30;;
38621;SDS011;24380;51.132;5.360;2023-04-01T02:48:52;3.98;;;2.15;;
38621;SDS011;24380;51.132;5.360;2023-04-01T02:51:20;2.90;;;1.90;;
38621;SDS011;24380;51.132;5.360;2023-04-01T02:53:47;3.72;;;1.98;;
38621;SDS011;24380;51.132;5.360;2023-04-01T02:56:15;3.72;;;2.15;;
38621;SDS011;24380;51.132;5.360;2023-04-01T02:58:43;2.98;;;2.10;;
38621;SDS011;24380;51.132;5.360;2023-04-01T03:01:10;5.10;;;2.30;;
38621;SDS011;24380;51.132;5.360;2023-04-01T03:03:38;4.95;;;2.17;;
38621;SDS011;24380;51.132;5.360;2023-04-01T03:06:11;3.72;;;2.15;;
38621;SDS011;24380;51.132;5.360;2023-04-01T03:08:36;3.05;;;2.05;;
38621;SDS011;24380;51.132;5.360;2023-04-01T03:11:04;2.20;;;2.00;;
38621;SDS011;24380;51.132;5.360;2023-04-01T03:13:31;3.50;;;2.27;;
38621;SDS011;24380;51.132;5.360;2023-04-01T03:16:00;4.72;;;2.85;;
38621;SDS011;24380;51.132;5.360;2023-04-01T03:18:27;5.50;;;2.62;;
38621;SDS011;24380;51.132;5.360;2023-04-01T03:20:55;3.75;;;2.85;;
38621;SDS011;24380;51.132;5.360;2023-04-01T03:23:22;4.67;;;2.52;;
38621;SDS011;24380;51.132;5.360;2023-04-01T03:25:50;4.97;;;2.90;;
38621;SDS011;24380;51.132;5.360;2023-04-01T03:28:18;6.08;;;2.77;;
38621;SDS011;24380;51.132;5.360;2023-04-01T03:30:46;3.95;;;2.70;;
38621;SDS011;24380;51.132;5.360;2023-04-01T03:33:13;3.90;;;2.72;;
38621;SDS011;24380;51.132;5.360;2023-04-01T03:35:41;4.15;;;2.58;;
38621;SDS011;24380;51.132;5.360;2023-04-01T03:38:08;4.83;;;2.90;;
38621;SDS011;24380;51.132;5.360;2023-04-01T03:40:36;5.47;;;2.60;;
38621;SDS011;24380;51.132;5.360;2023-04-01T03:43:04;4.97;;;2.58;;
38621;SDS011;24380;51.132;5.360;2023-04-01T03:45:33;3.85;;;2.67;;
38621;SDS011;24380;51.132;5.360;2023-04-01T03:48:00;5.15;;;2.85;;
38621;SDS011;24380;51.132;5.360;2023-04-01T03:50:28;3.08;;;2.62;;
38621;SDS011;24380;51.132;5.360;2023-04-01T03:52:55;5.65;;;2.87;;
38621;SDS011;24380;51.132;5.360;2023-04-01T03:55:23;3.67;;;2.90;;
38621;SDS011;24380;51.132;5.360;2023-04-01T03:57:51;3.80;;;2.70;;
38621;SDS011;24380;51.132;5.360;2023-04-01T04:00:18;3.85;;;2.60;;
38621;SDS011;24380;51.132;5.360;2023-04-01T04:02:46;3.45;;;2.80;;
38621;SDS011;24380;51.132;5.360;2023-04-01T04:05:14;4.08;;;2.50;;
38621;SDS011;24380;51.132;5.360;2023-04-01T04:07:41;4.42;;;2.77;;
38621;SDS011;24380;51.132;5.360;2023-04-01T04:10:09;5.22;;;2.70;;
38621;SDS011;24380;51.132;5.360;2023-04-01T04:12:36;5.47;;;2.80;;
38621;SDS011;24380;51.132;5.360;2023-04-01T04:15:06;4.47;;;3.02;;
38621;SDS011;24380;51.132;5.360;2023-04-01T04:17:34;5.75;;;2.77;;
38621;SDS011;24380;51.132;5.360;2023-04-01T04:20:02;3.25;;;2.60;;
38621;SDS011;24380;51.132;5.360;2023-04-01T04:22:30;5.53;;;3.17;;
38621;SDS011;24380;51.132;5.360;2023-04-01T04:24:57;3.20;;;2.83;;
38621;SDS011;24380;51.132;5.360;2023-04-01T04:27:25;3.00;;;2.70;;
38621;SDS011;24380;51.132;5.360;2023-04-01T04:29:53;3.45;;;2.72;;
38621;SDS011;24380;51.132;5.360;2023-04-01T04:32:20;4.10;;;3.00;;
38621;SDS011;24380;51.132;5.360;2023-04-01T04:34:48;3.02;;;2.72;;
38621;SDS011;24380;51.132;5.360;2023-04-01T04:37:15;5.58;;;3.15;;
38621;SDS011;24380;51.132;5.360;2023-04-01T04:39:43;4.58;;;2.83;;
38621;SDS011;24380;51.132;5.360;2023-04-01T04:42:10;2.92;;;2.70;;
38621;SDS011;24380;51.132;5.360;2023-04-01T04:44:38;3.33;;;2.80;;
38621;SDS011;24380;51.132;5.360;2023-04-01T04:47:06;3.58;;;2.55;;
38621;SDS011;24380;51.132;5.360;2023-04-01T04:49:33;3.70;;;2.52;;
38621;SDS011;24380;51.132;5.360;2023-04-01T04:52:01;5.15;;;2.75;;
38621;SDS011;24380;51.132;5.360;2023-04-01T04:54:29;2.62;;;2.42;;
38621;SDS011;24380;51.132;5.360;2023-04-01T04:56:56;2.90;;;2.55;;
38621;SDS011;24380;51.132;5.360;2023-04-01T04:59:24;4.08;;;2.40;;
38621;SDS011;24380;51.132;5.360;2023-04-01T05:01:51;2.98;;;2.20;;
38621;SDS011;24380;51.132;5.360;2023-04-01T05:04:19;2.47;;;2.22;;
38621;SDS011;24380;51.132;5.360;2023-04-01T05:06:46;2.72;;;2.52;;
38621;SDS011;24380;51.132;5.360;2023-04-01T05:09:14;3.05;;;2.05;;
38621;SDS011;24380;51.132;5.360;2023-04-01T05:11:42;2.60;;;2.40;;
38621;SDS011;24380;51.132;5.360;2023-04-01T05:14:14;2.55;;;2.35;;
38621;SDS011;24380;51.132;5.360;2023-04-01T05:16:42;4.45;;;2.70;;
38621;SDS011;24380;51.132;5.360;2023-04-01T05:19:09;2.72;;;2.40;;
38621;SDS011;24380;51.132;5.360;2023-04-01T05:21:37;3.42;;;2.62;;
38621;SDS011;24380;51.132;5.360;2023-04-01T05:24:07;3.60;;;2.72;;
38621;SDS011;24380;51.132;5.360;2023-04-01T05:26:35;3.55;;;3.25;;
38621;SDS011;24380;51.132;5.360;2023-04-01T05:29:04;3.65;;;3.35;;
38621;SDS011;24380;51.132;5.360;2023-04-01T05:31:31;4.00;;;3.60;;
38621;SDS011;24380;51.132;5.360;2023-04-01T05:33:59;5.10;;;3.90;;
38621;SDS011;24380;51.132;5.360;2023-04-01T05:36:27;4.33;;;3.83;;
38621;SDS011;24380;51.132;5.360;2023-04-01T05:38:55;4.62;;;4.00;;
38621;SDS011;24380;51.132;5.360;2023-04-01T05:44:36;4.55;;;4.10;;
38621;SDS011;24380;51.132;5.360;2023-04-01T05:47:04;6.08;;;4.60;;
38621;SDS011;24380;51.132;5.360;2023-04-01T05:49:32;5.15;;;4.37;;
38621;SDS011;24380;51.132;5.360;2023-04-01T05:52:00;7.12;;;5.87;;
38621;SDS011;24380;51.132;5.360;2023-04-01T05:54:28;8.93;;;6.10;;
38621;SDS011;24380;51.132;5.360;2023-04-01T05:56:57;6.05;;;5.28;;
38621;SDS011;24380;51.132;5.360;2023-04-01T05:59:24;4.50;;;4.10;;
38621;SDS011;24380;51.132;5.360;2023-04-01T06:01:52;5.95;;;4.53;;
38621;SDS011;24380;51.132;5.360;2023-04-01T06:04:20;7.00;;;6.30;;
38621;SDS011;24380;51.132;5.360;2023-04-01T06:06:47;5.40;;;4.90;;
38621;SDS011;24380;51.132;5.360;2023-04-01T06:09:19;4.72;;;3.70;;
38621;SDS011;24380;51.132;5.360;2023-04-01T06:26:02;3.92;;;3.62;;
38621;SDS011;24380;51.132;5.360;2023-04-01T06:32:11;4.28;;;3.72;;
38621;SDS011;24380;51.132;5.360;2023-04-01T06:52:17;6.78;;;4.50;;
38621;SDS011;24380;51.132;5.360;2023-04-01T06:57:58;4.92;;;4.45;;
38621;SDS011;24380;51.132;5.360;2023-04-01T07:00:30;4.05;;;3.75;;
38621;SDS011;24380;51.132;5.360;2023-04-01T07:03:06;4.40;;;4.00;;
38621;SDS011;24380;51.132;5.360;2023-04-01T07:05:50;4.05;;;3.75;;
38621;SDS011;24380;51.132;5.360;2023-04-01T07:08:21;4.28;;;3.60;;
38621;SDS011;24380;51.132;5.360;2023-04-01T07:11:05;3.45;;;3.15;;
38621;SDS011;24380;51.132;5.360;2023-04-01T07:13:53;3.98;;;3.67;;
38621;SDS011;24380;51.132;5.360;2023-04-01T07:16:56;3.92;;;3.62;;
38621;SDS011;24380;51.132;5.360;2023-04-01T07:19:30;4.70;;;4.30;;
38621;SDS011;24380;51.132;5.360;2023-04-01T07:25:34;4.62;;;4.22;;
38621;SDS011;24380;51.132;5.360;2023-04-01T07:28:05;4.92;;;4.37;;
38621;SDS011;24380;51.132;5.360;2023-04-01T07:33:12;4.45;;;3.98;;
38621;SDS011;24380;51.132;5.360;2023-04-01T07:35:46;4.33;;;3.92;;
38621;SDS011;24380;51.132;5.360;2023-04-01T07:41:07;5.05;;;3.98;;
38621;SDS011;24380;51.132;5.360;2023-04-01T07:43:56;4.65;;;4.20;;
38621;SDS011;24380;51.132;5.360;2023-04-01T07:46:32;4.25;;;3.85;;
38621;SDS011;24380;51.132;5.360;2023-04-01T07:49:30;4.40;;;3.87;;
38621;SDS011;24380;51.132;5.360;2023-04-01T07:57:22;4.17;;;3.87;;
38621;SDS011;24380;51.132;5.360;2023-04-01T08:05:56;3.80;;;3.50;;
38621;SDS011;24380;51.132;5.360;2023-04-01T08:08:33;3.40;;;3.10;;
38621;SDS011;24380;51.132;5.360;2023-04-01T08:11:11;3.27;;;2.98;;
38621;SDS011;24380;51.132;5.360;2023-04-01T08:14:03;3.45;;;3.15;;
38621;SDS011;24380;51.132;5.360;2023-04-01T08:16:38;4.17;;;3.00;;
38621;SDS011;24380;51.132;5.360;2023-04-01T08:21:54;4.45;;;4.05;;
38621;SDS011;24380;51.132;5.360;2023-04-01T08:27:03;5.10;;;4.55;;
38621;SDS011;24380;51.132;5.360;2023-04-01T08:32:26;5.15;;;4.75;;
38621;SDS011;24380;51.132;5.360;2023-04-01T08:35:20;6.67;;;5.40;;
38621;SDS011;24380;51.132;5.360;2023-04-01T08:37:54;5.78;;;5.00;;
38621;SDS011;24380;51.132;5.360;2023-04-01T08:40:35;5.15;;;4.70;;
38621;SDS011;24380;51.132;5.360;2023-04-01T08:48:22;5.78;;;5.28;;
38621;SDS011;24380;51.132;5.360;2023-04-01T08:59:06;6.60;;;6.00;;
38621;SDS011;24380;51.132;5.360;2023-04-01T09:04:47;6.45;;;5.85;;
38621;SDS011;24380;51.132;5.360;2023-04-01T09:20:53;8.83;;;6.67;;
38621;SDS011;24380;51.132;5.360;2023-04-01T09:23:35;7.22;;;6.53;;
38621;SDS011;24380;51.132;5.360;2023-04-01T09:31:47;6.90;;;6.30;;
38621;SDS011;24380;51.132;5.360;2023-04-01T09:34:45;7.40;;;6.70;;
38621;SDS011;24380;51.132;5.360;2023-04-01T09:40:18;6.55;;;5.95;;
38621;SDS011;24380;51.132;5.360;2023-04-01T09:43:06;7.47;;;6.78;;
38621;SDS011;24380;51.132;5.360;2023-04-01T09:48:24;6.75;;;6.05;;
38621;SDS011;24380;51.132;5.360;2023-04-01T09:51:03;6.45;;;5.85;;
38621;SDS011;24380;51.132;5.360;2023-04-01T10:04:41;7.23;;;6.17;;
38621;SDS011;24380;51.132;5.360;2023-04-01T10:10:23;6.67;;;6.08;;
38621;SDS011;24380;51.132;5.360;2023-04-01T10:15:36;6.45;;;5.80;;
38621;SDS011;24380;51.132;5.360;2023-04-01T10:49:31;5.03;;;4.62;;
38621;SDS011;24380;51.132;5.360;2023-04-01T11:00:10;4.70;;;4.30;;
38621;SDS011;24380;51.132;5.360;2023-04-01T11:05:35;4.60;;;4.20;;
38621;SDS011;24380;51.132;5.360;2023-04-01T11:08:39;4.33;;;4.03;;
38621;SDS011;24380;51.132;5.360;2023-04-01T11:14:19;5.22;;;4.42;;
38621;SDS011;24380;51.132;5.360;2023-04-01T11:25:29;6.20;;;5.30;;
38621;SDS011;24380;51.132;5.360;2023-04-01T11:33:46;6.47;;;5.90;;
38621;SDS011;24380;51.132;5.360;2023-04-01T11:39:05;5.53;;;5.03;;
38621;SDS011;24380;51.132;5.360;2023-04-01T11:44:25;5.47;;;4.97;;
38621;SDS011;24380;51.132;5.360;2023-04-01T11:55:31;6.40;;;5.55;;
38621;SDS011;24380;51.132;5.360;2023-04-01T11:58:24;5.42;;;4.92;;
38621;SDS011;24380;51.132;5.360;2023-04-01T12:00:56;6.30;;;5.22;;
38621;SDS011;24380;51.132;5.360;2023-04-01T12:07:06;6.87;;;4.80;;
38621;SDS011;24380;51.132;5.360;2023-04-01T12:09:50;5.05;;;4.65;;
38621;SDS011;24380;51.132;5.360;2023-04-01T12:12:37;5.95;;;5.40;;
38621;SDS011;24380;51.132;5.360;2023-04-01T12:15:44;6.35;;;5.28;;
38621;SDS011;24380;51.132;5.360;2023-04-01T12:32:09;12.00;;;9.85;;
38621;SDS011;24380;51.132;5.360;2023-04-01T12:40:47;10.68;;;9.48;;
38621;SDS011;24380;51.132;5.360;2023-04-01T12:55:25;7.58;;;6.80;;
38621;SDS011;24380;51.132;5.360;2023-04-01T13:09:16;10.18;;;6.87;;
38621;SDS011;24380;51.132;5.360;2023-04-01T13:12:16;9.50;;;7.35;;
38621;SDS011;24380;51.132;5.360;2023-04-01T13:28:31;8.55;;;7.28;;
38621;SDS011;24380;51.132;5.360;2023-04-01T13:36:59;8.35;;;7.50;;
38621;SDS011;24380;51.132;5.360;2023-04-01T13:48:29;8.08;;;7.17;;
38621;SDS011;24380;51.132;5.360;2023-04-01T13:56:15;6.60;;;6.00;;
38621;SDS011;24380;51.132;5.360;2023-04-01T14:01:41;9.20;;;6.70;;
38621;SDS011;24380;51.132;5.360;2023-04-01T14:09:51;7.53;;;6.80;;
38621;SDS011;24380;51.132;5.360;2023-04-01T14:23:04;6.50;;;5.78;;
38621;SDS011;24380;51.132;5.360;2023-04-01T14:25:46;7.12;;;6.42;;
38621;SDS011;24380;51.132;5.360;2023-04-01T14:31:30;6.85;;;5.72;;
38621;SDS011;24380;51.132;5.360;2023-04-01T14:37:33;5.42;;;4.92;;
38621;SDS011;24380;51.132;5.360;2023-04-01T14:42:53;5.58;;;4.97;;
38621;SDS011;24380;51.132;5.360;2023-04-01T14:45:44;5.12;;;4.72;;
38621;SDS011;24380;51.132;5.360;2023-04-01T14:48:31;4.90;;;4.40;;
38621;SDS011;24380;51.132;5.360;2023-04-01T14:51:08;5.22;;;4.67;;
38621;SDS011;24380;51.132;5.360;2023-04-01T14:56:35;4.78;;;4.37;;
38621;SDS011;24380;51.132;5.360;2023-04-01T14:59:17;5.08;;;4.62;;
38621;SDS011;24380;51.132;5.360;2023-04-01T15:04:50;4.55;;;4.15;;
38621;SDS011;24380;51.132;5.360;2023-04-01T15:10:30;4.42;;;4.03;;
38621;SDS011;24380;51.132;5.360;2023-04-01T15:13:05;4.70;;;4.30;;
38621;SDS011;24380;51.132;5.360;2023-04-01T15:21:23;6.12;;;4.90;;
38621;SDS011;24380;51.132;5.360;2023-04-01T15:26:28;5.08;;;4.55;;
38621;SDS011;24380;51.132;5.360;2023-04-01T15:32:28;4.97;;;4.58;;
38621;SDS011;24380;51.132;5.360;2023-04-01T15:34:41;4.15;;;3.75;;
38621;SDS011;24380;51.132;5.360;2023-04-01T15:40:07;4.55;;;4.15;;
38621;SDS011;24380;51.132;5.360;2023-04-01T15:42:45;4.33;;;3.80;;
38621;SDS011;24380;51.132;5.360;2023-04-01T15:45:16;3.65;;;3.30;;
38621;SDS011;24380;51.132;5.360;2023-04-01T15:48:01;5.12;;;3.27;;
38621;SDS011;24380;51.132;5.360;2023-04-01T15:50:44;5.17;;;4.70;;
38621;SDS011;24380;51.132;5.360;2023-04-01T15:53:30;3.90;;;3.50;;
38621;SDS011;24380;51.132;5.360;2023-04-01T15:56:22;6.72;;;3.80;;
38621;SDS011;24380;51.132;5.360;2023-04-01T15:58:54;6.22;;;5.10;;
38621;SDS011;24380;51.132;5.360;2023-04-01T16:21:21;8.05;;;6.20;;
38621;SDS011;24380;51.132;5.360;2023-04-01T16:23:58;11.38;;;7.53;;
38621;SDS011;24380;51.132;5.360;2023-04-01T16:29:09;8.53;;;7.47;;
38621;SDS011;24380;51.132;5.360;2023-04-01T16:34:11;7.33;;;6.62;;
38621;SDS011;24380;51.132;5.360;2023-04-01T16:36:45;7.87;;;7.10;;
38621;SDS011;24380;51.132;5.360;2023-04-01T16:48:20;7.53;;;5.60;;
38621;SDS011;24380;51.132;5.360;2023-04-01T16:50:23;7.92;;;6.55;;
38621;SDS011;24380;51.132;5.360;2023-04-01T16:53:02;5.87;;;5.33;;
38621;SDS011;24380;51.132;5.360;2023-04-01T16:55:43;5.65;;;5.15;;
38621;SDS011;24380;51.132;5.360;2023-04-01T16:58:25;5.45;;;4.95;;
38621;SDS011;24380;51.132;5.360;2023-04-01T17:01:04;5.58;;;5.08;;
38621;SDS011;24380;51.132;5.360;2023-04-01T17:03:46;5.67;;;5.08;;
38621;SDS011;24380;51.132;5.360;2023-04-01T17:14:54;5.80;;;4.70;;
38621;SDS011;24380;51.132;5.360;2023-04-01T17:20:12;5.53;;;4.95;;
38621;SDS011;24380;51.132;5.360;2023-04-01T17:22:48;4.65;;;4.25;;
38621;SDS011;24380;51.132;5.360;2023-04-01T17:25:25;4.83;;;4.20;;
38621;SDS011;24380;51.132;5.360;2023-04-01T17:27:59;5.75;;;4.47;;
38621;SDS011;24380;51.132;5.360;2023-04-01T17:30:35;4.62;;;4.15;;
38621;SDS011;24380;51.132;5.360;2023-04-01T17:33:30;5.80;;;4.65;;
38621;SDS011;24380;51.132;5.360;2023-04-01T17:47:25;4.40;;;4.00;;
38621;SDS011;24380;51.132;5.360;2023-04-01T17:50:07;4.30;;;3.90;;
38621;SDS011;24380;51.132;5.360;2023-04-01T18:03:54;5.20;;;4.70;;
38621;SDS011;24380;51.132;5.360;2023-04-01T18:14:43;6.55;;;5.92;;
38621;SDS011;24380;51.132;5.360;2023-04-01T18:17:27;7.10;;;6.40;;
38621;SDS011;24380;51.132;5.360;2023-04-01T18:25:44;7.62;;;6.62;;
38621;SDS011;24380;51.132;5.360;2023-04-01T18:28:34;7.22;;;6.53;;
38621;SDS011;24380;51.132;5.360;2023-04-01T18:33:46;7.72;;;6.90;;
38621;SDS011;24380;51.132;5.360;2023-04-01T18:39:31;12.65;;;9.98;;
38621;SDS011;24380;51.132;5.360;2023-04-01T18:42:03;13.58;;;12.03;;
38621;SDS011;24380;51.132;5.360;2023-04-01T18:44:57;12.05;;;9.85;;
38621;SDS011;24380;51.132;5.360;2023-04-01T18:47:44;11.60;;;10.15;;
38621;SDS011;24380;51.132;5.360;2023-04-01T18:50:47;12.40;;;10.03;;
38621;SDS011;24380;51.132;5.360;2023-04-01T18:53:20;18.60;;;13.22;;
38621;SDS011;24380;51.132;5.360;2023-04-01T18:55:55;12.63;;;11.08;;
38621;SDS011;24380;51.132;5.360;2023-04-01T18:58:29;11.75;;;9.20;;
38621;SDS011;24380;51.132;5.360;2023-04-01T19:01:06;11.80;;;10.35;;
38621;SDS011;24380;51.132;5.360;2023-04-01T19:03:39;13.45;;;10.90;;
38621;SDS011;24380;51.132;5.360;2023-04-01T19:06:24;11.50;;;9.35;;
38621;SDS011;24380;51.132;5.360;2023-04-01T19:12:08;12.75;;;10.08;;
38621;SDS011;24380;51.132;5.360;2023-04-01T19:20:17;16.42;;;14.10;;
38621;SDS011;24380;51.132;5.360;2023-04-01T19:25:29;19.12;;;14.85;;
38621;SDS011;24380;51.132;5.360;2023-04-01T19:30:55;16.70;;;13.55;;
38621;SDS011;24380;51.132;5.360;2023-04-01T19:38:55;15.13;;;12.20;;
38621;SDS011;24380;51.132;5.360;2023-04-01T19:41:50;26.27;;;19.07;;
38621;SDS011;24380;51.132;5.360;2023-04-01T19:44:31;22.22;;;17.67;;
38621;SDS011;24380;51.132;5.360;2023-04-01T19:53:11;21.45;;;16.17;;
38621;SDS011;24380;51.132;5.360;2023-04-01T19:58:24;17.07;;;13.58;;
38621;SDS011;24380;51.132;5.360;2023-04-01T20:01:09;13.83;;;11.03;;
38621;SDS011;24380;51.132;5.360;2023-04-01T20:06:29;11.00;;;8.38;;
38621;SDS011;24380;51.132;5.360;2023-04-01T20:11:58;10.05;;;8.38;;
38621;SDS011;24380;51.132;5.360;2023-04-01T20:14:28;9.83;;;8.30;;
38621;SDS011;24380;51.132;5.360;2023-04-01T20:19:55;9.83;;;8.10;;
38621;SDS011;24380;51.132;5.360;2023-04-01T20:33:35;10.93;;;8.20;;
38621;SDS011;24380;51.132;5.360;2023-04-01T20:52:57;9.85;;;8.30;;
38621;SDS011;24380;51.132;5.360;2023-04-01T20:58:40;10.10;;;8.30;;
38621;SDS011;24380;51.132;5.360;2023-04-01T21:06:47;10.38;;;8.60;;
38621;SDS011;24380;51.132;5.360;2023-04-01T21:09:21;10.35;;;8.45;;
38621;SDS011;24380;51.132;5.360;2023-04-01T21:11:55;9.38;;;8.13;;
38621;SDS011;24380;51.132;5.360;2023-04-01T21:17:32;11.28;;;9.73;;
38621;SDS011;24380;51.132;5.360;2023-04-01T21:22:49;11.53;;;10.27;;
38621;SDS011;24380;51.132;5.360;2023-04-01T21:39:27;11.93;;;9.23;;
38621;SDS011;24380;51.132;5.360;2023-04-01T21:42:09;12.37;;;9.45;;
38621;SDS011;24380;51.132;5.360;2023-04-01T21:53:38;11.90;;;10.10;;
38621;SDS011;24380;51.132;5.360;2023-04-01T21:56:20;9.48;;;8.08;;
38621;SDS011;24380;51.132;5.360;2023-04-01T22:04:56;11.12;;;9.03;;
38621;SDS011;24380;51.132;5.360;2023-04-01T22:10:21;11.30;;;9.08;;
38621;SDS011;24380;51.132;5.360;2023-04-01T22:12:49;10.85;;;9.03;;
38621;SDS011;24380;51.132;5.360;2023-04-01T22:15:23;11.65;;;9.45;;
38621;SDS011;24380;51.132;5.360;2023-04-01T22:17:56;11.05;;;9.20;;
38621;SDS011;24380;51.132;5.360;2023-04-01T22:20:28;12.00;;;9.95;;
38621;SDS011;24380;51.132;5.360;2023-04-01T22:23:07;10.90;;;9.65;;
38621;SDS011;24380;51.132;5.360;2023-04-01T22:28:24;12.60;;;10.50;;
38621;SDS011;24380;51.132;5.360;2023-04-01T22:31:00;11.80;;;9.73;;
38621;SDS011;24380;51.132;5.360;2023-04-01T22:33:32;12.65;;;10.48;;
38621;SDS011;24380;51.132;5.360;2023-04-01T22:36:25;12.10;;;10.30;;
38621;SDS011;24380;51.132;5.360;2023-04-01T22:47:21;13.43;;;11.22;;
38621;SDS011;24380;51.132;5.360;2023-04-01T22:49:54;16.73;;;12.53;;
38621;SDS011;24380;51.132;5.360;2023-04-01T22:52:31;13.95;;;11.43;;
38621;SDS011;24380;51.132;5.360;2023-04-01T22:55:08;13.43;;;11.40;;
38621;SDS011;24380;51.132;5.360;2023-04-01T22:57:40;14.45;;;11.73;;
38621;SDS011;24380;51.132;5.360;2023-04-01T23:00:13;13.18;;;11.55;;
38621;SDS011;24380;51.132;5.360;2023-04-01T23:02:43;12.63;;;10.80;;
38621;SDS011;24380;51.132;5.360;2023-04-01T23:05:17;10.78;;;9.63;;
38621;SDS011;24380;51.132;5.360;2023-04-01T23:10:59;10.78;;;9.25;;
38621;SDS011;24380;51.132;5.360;2023-04-01T23:13:28;11.57;;;9.33;;
38621;SDS011;24380;51.132;5.360;2023-04-01T23:16:01;9.63;;;8.00;;
38621;SDS011;24380;51.132;5.360;2023-04-01T23:18:30;11.63;;;8.78;;
38621;SDS011;24380;51.132;5.360;2023-04-01T23:24:05;11.75;;;10.00;;
38621;SDS011;24380;51.132;5.360;2023-04-01T23:26:40;13.55;;;10.32;;
38621;SDS011;24380;51.132;5.360;2023-04-01T23:29:25;12.55;;;10.50;;
38621;SDS011;24380;51.132;5.360;2023-04-01T23:31:46;13.60;;;10.88;;
38621;SDS011;24380;51.132;5.360;2023-04-01T23:34:32;13.10;;;10.45;;
38621;SDS011;24380;51.132;5.360;2023-04-01T23:37:02;12.20;;;9.68;;
38621;SDS011;24380;51.132;5.360;2023-04-01T23:39:41;12.10;;;9.50;;
38621;SDS011;24380;51.132;5.360;2023-04-01T23:42:15;10.58;;;9.13;;
38621;SDS011;24380;51.132;5.360;2023-04-01T23:44:48;9.63;;;8.63;;
38621;SDS011;24380;51.132;5.360;2023-04-01T23:47:20;10.32;;;9.05;;
38621;SDS011;24380;51.132;5.360;2023-04-01T23:52:27;10.23;;;8.95;;
38621;SDS011;24380;51.132;5.360;2023-04-01T23:55:13;9.68;;;8.25;;
38621;SDS011;24380;51.132;5.360;2023-04-01T23:57:39;10.65;;;8.63;;
